sensor_id;sensor_type;location;lat;lon;timestamp;temperature;humidity
39777;DHT22;25453;48.162;14.510;2023-04-09T00:01:13;8.50;74.50
39777;DHT22;25453;48.162;14.510;2023-04-09T00:03:40;8.50;74.50
39777;DHT22;25453;48.162;14.510;2023-04-09T00:06:07;8.40;74.70
39777;DHT22;25453;48.162;14.510;2023-04-09T00:08:34;8.40;74.70
39777;DHT22;25453;48.162;14.510;2023-04-09T00:11:01;8.40;74.60
39777;DHT22;25453;48.162;14.510;2023-04-09T00:13:27;8.40;74.70
39777;DHT22;25453;48.162;14.510;2023-04-09T00:16:04;8.40;74.60
39777;DHT22;25453;48.162;14.510;2023-04-09T00:18:31;8.40;74.70
39777;DHT22;25453;48.162;14.510;2023-04-09T00:20:58;8.40;74.80
39777;DHT22;25453;48.162;14.510;2023-04-09T00:23:25;8.40;75.00
39777;DHT22;25453;48.162;14.510;2023-04-09T00:25:52;8.50;75.00
39777;DHT22;25453;48.162;14.510;2023-04-09T00:28:19;8.50;75.10
39777;DHT22;25453;48.162;14.510;2023-04-09T00:30:46;8.50;74.70
39777;DHT22;25453;48.162;14.510;2023-04-09T00:33:13;8.50;74.70
39777;DHT22;25453;48.162;14.510;2023-04-09T00:35:40;8.50;74.80
39777;DHT22;25453;48.162;14.510;2023-04-09T00:38:07;8.50;74.80
39777;DHT22;25453;48.162;14.510;2023-04-09T00:40:33;8.50;74.60
39777;DHT22;25453;48.162;14.510;2023-04-09T00:43:01;8.50;74.70
39777;DHT22;25453;48.162;14.510;2023-04-09T00:45:28;8.50;74.80
39777;DHT22;25453;48.162;14.510;2023-04-09T00:47:55;8.60;74.70
39777;DHT22;25453;48.162;14.510;2023-04-09T00:50:22;8.60;74.60
39777;DHT22;25453;48.162;14.510;2023-04-09T00:52:49;8.50;74.50
39777;DHT22;25453;48.162;14.510;2023-04-09T00:55:17;8.60;74.60
39777;DHT22;25453;48.162;14.510;2023-04-09T00:57:44;8.50;74.40
39777;DHT22;25453;48.162;14.510;2023-04-09T01:00:11;8.50;74.40
39777;DHT22;25453;48.162;14.510;2023-04-09T01:02:38;8.40;74.50
39777;DHT22;25453;48.162;14.510;2023-04-09T01:05:06;8.40;74.50
39777;DHT22;25453;48.162;14.510;2023-04-09T01:10:18;8.30;74.60
39777;DHT22;25453;48.162;14.510;2023-04-09T01:15:29;8.30;74.70
39777;DHT22;25453;48.162;14.510;2023-04-09T01:18:10;8.30;74.70
39777;DHT22;25453;48.162;14.510;2023-04-09T01:20:47;8.30;74.70
39777;DHT22;25453;48.162;14.510;2023-04-09T01:23:17;8.40;74.70
39777;DHT22;25453;48.162;14.510;2023-04-09T01:28:22;8.30;74.80
39777;DHT22;25453;48.162;14.510;2023-04-09T01:30:52;8.30;75.00
39777;DHT22;25453;48.162;14.510;2023-04-09T01:33:22;8.40;74.80
39777;DHT22;25453;48.162;14.510;2023-04-09T01:35:50;8.40;75.10
39777;DHT22;25453;48.162;14.510;2023-04-09T01:38:18;8.40;74.80
39777;DHT22;25453;48.162;14.510;2023-04-09T01:40:46;8.40;74.60
39777;DHT22;25453;48.162;14.510;2023-04-09T01:43:14;8.40;74.80
39777;DHT22;25453;48.162;14.510;2023-04-09T01:45:41;8.40;74.80
39777;DHT22;25453;48.162;14.510;2023-04-09T01:48:09;8.40;75.00
39777;DHT22;25453;48.162;14.510;2023-04-09T01:50:37;8.50;75.10
39777;DHT22;25453;48.162;14.510;2023-04-09T01:53:04;8.50;75.10
39777;DHT22;25453;48.162;14.510;2023-04-09T01:55:31;8.50;75.00
39777;DHT22;25453;48.162;14.510;2023-04-09T01:57:58;8.50;75.00
39777;DHT22;25453;48.162;14.510;2023-04-09T02:00:26;8.50;74.80
39777;DHT22;25453;48.162;14.510;2023-04-09T02:05:27;8.50;75.10
39777;DHT22;25453;48.162;14.510;2023-04-09T02:07:55;8.50;75.10
39777;DHT22;25453;48.162;14.510;2023-04-09T02:10:23;8.50;75.10
39777;DHT22;25453;48.162;14.510;2023-04-09T02:12:51;8.50;75.10
39777;DHT22;25453;48.162;14.510;2023-04-09T02:15:19;8.50;75.10
39777;DHT22;25453;48.162;14.510;2023-04-09T02:17:47;8.40;75.10
39777;DHT22;25453;48.162;14.510;2023-04-09T02:20:17;8.40;75.30
39777;DHT22;25453;48.162;14.510;2023-04-09T02:22:45;8.40;75.20
39777;DHT22;25453;48.162;14.510;2023-04-09T02:25:12;8.40;75.40
39777;DHT22;25453;48.162;14.510;2023-04-09T02:27:39;8.40;75.50
39777;DHT22;25453;48.162;14.510;2023-04-09T02:30:06;8.40;75.80
39777;DHT22;25453;48.162;14.510;2023-04-09T02:32:33;8.40;75.70
39777;DHT22;25453;48.162;14.510;2023-04-09T02:35:00;8.40;75.90
39777;DHT22;25453;48.162;14.510;2023-04-09T02:37:27;8.40;76.00
39777;DHT22;25453;48.162;14.510;2023-04-09T02:39:54;8.40;76.10
39777;DHT22;25453;48.162;14.510;2023-04-09T02:42:21;8.40;76.10
39777;DHT22;25453;48.162;14.510;2023-04-09T02:44:48;8.40;76.10
39777;DHT22;25453;48.162;14.510;2023-04-09T02:47:15;8.40;76.20
39777;DHT22;25453;48.162;14.510;2023-04-09T02:49:42;8.40;76.20
39777;DHT22;25453;48.162;14.510;2023-04-09T02:52:09;8.40;76.30
39777;DHT22;25453;48.162;14.510;2023-04-09T02:54:37;8.40;76.40
39777;DHT22;25453;48.162;14.510;2023-04-09T02:57:03;8.40;76.50
39777;DHT22;25453;48.162;14.510;2023-04-09T02:59:31;8.30;76.60
39777;DHT22;25453;48.162;14.510;2023-04-09T03:02:00;8.30;76.50
39777;DHT22;25453;48.162;14.510;2023-04-09T03:04:27;8.30;76.40
39777;DHT22;25453;48.162;14.510;2023-04-09T03:06:54;8.30;76.50
39777;DHT22;25453;48.162;14.510;2023-04-09T03:09:21;8.30;76.70
39777;DHT22;25453;48.162;14.510;2023-04-09T03:11:48;8.30;76.80
39777;DHT22;25453;48.162;14.510;2023-04-09T03:14:15;8.30;76.80
39777;DHT22;25453;48.162;14.510;2023-04-09T03:16:42;8.30;76.90
39777;DHT22;25453;48.162;14.510;2023-04-09T03:19:08;8.30;76.90
39777;DHT22;25453;48.162;14.510;2023-04-09T03:21:35;8.30;77.00
39777;DHT22;25453;48.162;14.510;2023-04-09T03:24:02;8.30;76.80
39777;DHT22;25453;48.162;14.510;2023-04-09T03:26:29;8.20;76.80
39777;DHT22;25453;48.162;14.510;2023-04-09T03:29:02;8.20;76.90
39777;DHT22;25453;48.162;14.510;2023-04-09T03:31:29;8.20;76.90
39777;DHT22;25453;48.162;14.510;2023-04-09T03:33:57;8.20;76.90
39777;DHT22;25453;48.162;14.510;2023-04-09T03:36:24;8.20;77.00
39777;DHT22;25453;48.162;14.510;2023-04-09T03:38:53;8.20;76.90
39777;DHT22;25453;48.162;14.510;2023-04-09T03:41:20;8.10;76.90
39777;DHT22;25453;48.162;14.510;2023-04-09T03:43:47;8.10;76.90
39777;DHT22;25453;48.162;14.510;2023-04-09T03:46:14;8.10;77.00
39777;DHT22;25453;48.162;14.510;2023-04-09T03:48:42;8.10;77.10
39777;DHT22;25453;48.162;14.510;2023-04-09T03:51:13;8.10;77.00
39777;DHT22;25453;48.162;14.510;2023-04-09T03:53:40;8.10;77.20
39777;DHT22;25453;48.162;14.510;2023-04-09T03:56:07;8.10;77.10
39777;DHT22;25453;48.162;14.510;2023-04-09T03:58:35;8.10;77.20
39777;DHT22;25453;48.162;14.510;2023-04-09T04:01:02;8.10;77.10
39777;DHT22;25453;48.162;14.510;2023-04-09T04:03:29;8.10;76.90
39777;DHT22;25453;48.162;14.510;2023-04-09T04:06:00;8.10;77.00
39777;DHT22;25453;48.162;14.510;2023-04-09T04:08:28;8.00;77.10
39777;DHT22;25453;48.162;14.510;2023-04-09T04:10:55;8.00;76.90
39777;DHT22;25453;48.162;14.510;2023-04-09T04:13:22;8.00;77.00
39777;DHT22;25453;48.162;14.510;2023-04-09T04:15:49;8.00;77.10
39777;DHT22;25453;48.162;14.510;2023-04-09T04:18:16;8.00;77.00
39777;DHT22;25453;48.162;14.510;2023-04-09T04:20:43;8.00;77.10
39777;DHT22;25453;48.162;14.510;2023-04-09T04:23:10;8.00;77.20
39777;DHT22;25453;48.162;14.510;2023-04-09T04:25:39;8.00;77.20
39777;DHT22;25453;48.162;14.510;2023-04-09T04:28:07;8.10;77.20
39777;DHT22;25453;48.162;14.510;2023-04-09T04:30:34;8.10;77.10
39777;DHT22;25453;48.162;14.510;2023-04-09T04:33:01;8.10;77.00
39777;DHT22;25453;48.162;14.510;2023-04-09T04:35:28;8.10;77.10
39777;DHT22;25453;48.162;14.510;2023-04-09T04:37:55;8.10;77.00
39777;DHT22;25453;48.162;14.510;2023-04-09T04:40:21;8.10;76.80
39777;DHT22;25453;48.162;14.510;2023-04-09T04:42:48;8.10;76.80
39777;DHT22;25453;48.162;14.510;2023-04-09T04:45:15;8.10;76.70
39777;DHT22;25453;48.162;14.510;2023-04-09T04:47:42;8.10;76.70
39777;DHT22;25453;48.162;14.510;2023-04-09T04:50:09;8.10;76.70
39777;DHT22;25453;48.162;14.510;2023-04-09T04:52:36;8.10;76.80
39777;DHT22;25453;48.162;14.510;2023-04-09T04:55:05;8.20;76.90
39777;DHT22;25453;48.162;14.510;2023-04-09T04:57:33;8.20;76.80
39777;DHT22;25453;48.162;14.510;2023-04-09T04:59:59;8.20;76.70
39777;DHT22;25453;48.162;14.510;2023-04-09T05:02:26;8.20;76.70
39777;DHT22;25453;48.162;14.510;2023-04-09T05:04:53;8.20;76.70
39777;DHT22;25453;48.162;14.510;2023-04-09T05:07:20;8.20;76.70
39777;DHT22;25453;48.162;14.510;2023-04-09T05:09:47;8.20;76.60
39777;DHT22;25453;48.162;14.510;2023-04-09T05:12:15;8.20;76.40
39777;DHT22;25453;48.162;14.510;2023-04-09T05:14:43;8.20;76.40
39777;DHT22;25453;48.162;14.510;2023-04-09T05:17:10;8.10;76.50
39777;DHT22;25453;48.162;14.510;2023-04-09T05:19:37;8.10;76.50
39777;DHT22;25453;48.162;14.510;2023-04-09T05:22:04;8.10;76.50
39777;DHT22;25453;48.162;14.510;2023-04-09T05:24:31;8.10;76.50
39777;DHT22;25453;48.162;14.510;2023-04-09T05:26:58;8.10;76.60
39777;DHT22;25453;48.162;14.510;2023-04-09T05:29:25;8.10;76.70
39777;DHT22;25453;48.162;14.510;2023-04-09T05:31:52;8.10;76.70
39777;DHT22;25453;48.162;14.510;2023-04-09T05:34:19;8.10;76.60
39777;DHT22;25453;48.162;14.510;2023-04-09T05:36:46;8.10;76.60
39777;DHT22;25453;48.162;14.510;2023-04-09T05:39:13;8.10;76.50
39777;DHT22;25453;48.162;14.510;2023-04-09T05:41:40;8.10;76.60
39777;DHT22;25453;48.162;14.510;2023-04-09T05:44:07;8.10;76.60
39777;DHT22;25453;48.162;14.510;2023-04-09T05:46:34;8.10;76.50
39777;DHT22;25453;48.162;14.510;2023-04-09T05:49:01;8.10;76.50
39777;DHT22;25453;48.162;14.510;2023-04-09T05:51:28;8.10;76.60
39777;DHT22;25453;48.162;14.510;2023-04-09T05:53:55;8.10;76.60
39777;DHT22;25453;48.162;14.510;2023-04-09T05:56:22;8.20;76.70
39777;DHT22;25453;48.162;14.510;2023-04-09T05:58:49;8.20;76.60
39777;DHT22;25453;48.162;14.510;2023-04-09T06:01:16;8.30;76.60
39777;DHT22;25453;48.162;14.510;2023-04-09T06:03:43;8.30;76.40
39777;DHT22;25453;48.162;14.510;2023-04-09T06:06:11;8.30;76.40
39777;DHT22;25453;48.162;14.510;2023-04-09T06:08:38;8.30;76.40
39777;DHT22;25453;48.162;14.510;2023-04-09T06:11:09;8.30;76.30
39777;DHT22;25453;48.162;14.510;2023-04-09T06:13:36;8.30;76.40
39777;DHT22;25453;48.162;14.510;2023-04-09T06:16:06;8.30;76.40
39777;DHT22;25453;48.162;14.510;2023-04-09T06:18:35;8.30;76.30
39777;DHT22;25453;48.162;14.510;2023-04-09T06:21:03;8.30;76.20
39777;DHT22;25453;48.162;14.510;2023-04-09T06:23:31;8.30;76.40
39777;DHT22;25453;48.162;14.510;2023-04-09T06:25:58;8.30;76.30
39777;DHT22;25453;48.162;14.510;2023-04-09T06:28:25;8.30;76.20
39777;DHT22;25453;48.162;14.510;2023-04-09T06:30:53;8.30;76.20
39777;DHT22;25453;48.162;14.510;2023-04-09T06:33:21;8.30;76.30
39777;DHT22;25453;48.162;14.510;2023-04-09T06:35:48;8.30;76.20
39777;DHT22;25453;48.162;14.510;2023-04-09T06:38:15;8.30;76.10
39777;DHT22;25453;48.162;14.510;2023-04-09T06:40:42;8.30;76.20
39777;DHT22;25453;48.162;14.510;2023-04-09T06:43:10;8.30;76.30
39777;DHT22;25453;48.162;14.510;2023-04-09T06:45:37;8.30;76.40
39777;DHT22;25453;48.162;14.510;2023-04-09T06:48:06;8.30;76.30
39777;DHT22;25453;48.162;14.510;2023-04-09T06:50:33;8.30;76.40
39777;DHT22;25453;48.162;14.510;2023-04-09T06:53:01;8.30;76.40
39777;DHT22;25453;48.162;14.510;2023-04-09T06:55:28;8.40;76.40
39777;DHT22;25453;48.162;14.510;2023-04-09T06:57:55;8.40;76.30
39777;DHT22;25453;48.162;14.510;2023-04-09T07:00:22;8.40;76.30
39777;DHT22;25453;48.162;14.510;2023-04-09T07:02:49;8.40;76.40
39777;DHT22;25453;48.162;14.510;2023-04-09T07:05:18;8.40;76.30
39777;DHT22;25453;48.162;14.510;2023-04-09T07:07:45;8.40;76.50
39777;DHT22;25453;48.162;14.510;2023-04-09T07:10:12;8.40;76.50
39777;DHT22;25453;48.162;14.510;2023-04-09T07:12:39;8.50;76.50
39777;DHT22;25453;48.162;14.510;2023-04-09T07:15:06;8.50;76.60
39777;DHT22;25453;48.162;14.510;2023-04-09T07:17:33;8.50;76.70
39777;DHT22;25453;48.162;14.510;2023-04-09T07:20:00;8.50;76.70
39777;DHT22;25453;48.162;14.510;2023-04-09T07:22:28;8.60;76.80
39777;DHT22;25453;48.162;14.510;2023-04-09T07:24:55;8.60;76.80
39777;DHT22;25453;48.162;14.510;2023-04-09T07:27:26;8.60;76.80
39777;DHT22;25453;48.162;14.510;2023-04-09T07:29:54;8.70;76.80
39777;DHT22;25453;48.162;14.510;2023-04-09T07:32:21;8.70;76.80
39777;DHT22;25453;48.162;14.510;2023-04-09T07:34:51;8.70;76.80
39777;DHT22;25453;48.162;14.510;2023-04-09T07:37:18;8.70;76.90
39777;DHT22;25453;48.162;14.510;2023-04-09T07:39:46;8.70;77.00
39777;DHT22;25453;48.162;14.510;2023-04-09T07:42:13;8.70;77.00
39777;DHT22;25453;48.162;14.510;2023-04-09T07:44:40;8.70;76.90
39777;DHT22;25453;48.162;14.510;2023-04-09T07:47:07;8.80;77.10
39777;DHT22;25453;48.162;14.510;2023-04-09T07:49:35;8.80;77.00
39777;DHT22;25453;48.162;14.510;2023-04-09T07:52:02;8.80;77.00
39777;DHT22;25453;48.162;14.510;2023-04-09T07:54:29;8.80;76.90
39777;DHT22;25453;48.162;14.510;2023-04-09T07:56:59;8.80;77.00
39777;DHT22;25453;48.162;14.510;2023-04-09T07:59:29;8.80;77.00
39777;DHT22;25453;48.162;14.510;2023-04-09T08:01:57;8.80;77.00
39777;DHT22;25453;48.162;14.510;2023-04-09T08:04:24;8.80;77.00
39777;DHT22;25453;48.162;14.510;2023-04-09T08:06:52;8.80;77.00
39777;DHT22;25453;48.162;14.510;2023-04-09T08:09:19;8.80;76.90
39777;DHT22;25453;48.162;14.510;2023-04-09T08:11:47;8.80;77.00
39777;DHT22;25453;48.162;14.510;2023-04-09T08:14:14;8.80;77.00
39777;DHT22;25453;48.162;14.510;2023-04-09T08:16:42;8.80;76.90
39777;DHT22;25453;48.162;14.510;2023-04-09T08:19:09;8.80;76.90
39777;DHT22;25453;48.162;14.510;2023-04-09T08:21:37;8.80;76.90
39777;DHT22;25453;48.162;14.510;2023-04-09T08:24:04;8.80;77.10
39777;DHT22;25453;48.162;14.510;2023-04-09T08:26:32;8.80;77.20
39777;DHT22;25453;48.162;14.510;2023-04-09T08:28:59;8.80;77.20
39777;DHT22;25453;48.162;14.510;2023-04-09T08:31:26;8.90;77.20
39777;DHT22;25453;48.162;14.510;2023-04-09T08:33:53;8.90;77.20
39777;DHT22;25453;48.162;14.510;2023-04-09T08:36:20;8.90;77.20
39777;DHT22;25453;48.162;14.510;2023-04-09T08:38:47;8.90;77.20
39777;DHT22;25453;48.162;14.510;2023-04-09T08:41:18;8.90;77.30
39777;DHT22;25453;48.162;14.510;2023-04-09T08:43:46;9.00;77.40
39777;DHT22;25453;48.162;14.510;2023-04-09T08:46:18;9.00;77.30
39777;DHT22;25453;48.162;14.510;2023-04-09T08:48:46;9.00;77.20
39777;DHT22;25453;48.162;14.510;2023-04-09T08:51:17;9.00;77.20
39777;DHT22;25453;48.162;14.510;2023-04-09T08:53:49;9.00;77.40
39777;DHT22;25453;48.162;14.510;2023-04-09T08:56:18;9.10;77.40
39777;DHT22;25453;48.162;14.510;2023-04-09T08:58:47;9.10;77.40
39777;DHT22;25453;48.162;14.510;2023-04-09T09:06:24;9.10;77.40
39777;DHT22;25453;48.162;14.510;2023-04-09T09:11:33;9.20;77.20
39777;DHT22;25453;48.162;14.510;2023-04-09T09:14:01;9.20;77.20
39777;DHT22;25453;48.162;14.510;2023-04-09T09:16:28;9.20;77.30
39777;DHT22;25453;48.162;14.510;2023-04-09T09:18:55;9.20;77.40
39777;DHT22;25453;48.162;14.510;2023-04-09T09:21:23;9.20;77.30
39777;DHT22;25453;48.162;14.510;2023-04-09T09:23:53;9.20;77.30
39777;DHT22;25453;48.162;14.510;2023-04-09T09:26:21;9.20;77.20
39777;DHT22;25453;48.162;14.510;2023-04-09T09:28:49;9.20;77.20
39777;DHT22;25453;48.162;14.510;2023-04-09T09:31:17;9.20;77.20
39777;DHT22;25453;48.162;14.510;2023-04-09T09:33:45;9.20;77.20
39777;DHT22;25453;48.162;14.510;2023-04-09T09:36:13;9.20;77.30
39777;DHT22;25453;48.162;14.510;2023-04-09T09:38:50;9.20;77.30
39777;DHT22;25453;48.162;14.510;2023-04-09T09:41:18;9.20;77.30
39777;DHT22;25453;48.162;14.510;2023-04-09T09:43:45;9.20;77.30
39777;DHT22;25453;48.162;14.510;2023-04-09T09:46:12;9.30;77.30
39777;DHT22;25453;48.162;14.510;2023-04-09T09:48:40;9.30;77.40
39777;DHT22;25453;48.162;14.510;2023-04-09T09:51:09;9.40;77.40
39777;DHT22;25453;48.162;14.510;2023-04-09T09:53:37;9.40;77.50
39777;DHT22;25453;48.162;14.510;2023-04-09T09:56:04;9.40;77.30
39777;DHT22;25453;48.162;14.510;2023-04-09T09:58:36;9.50;77.10
39777;DHT22;25453;48.162;14.510;2023-04-09T10:01:08;9.50;77.00
39777;DHT22;25453;48.162;14.510;2023-04-09T10:03:37;9.50;76.90
39777;DHT22;25453;48.162;14.510;2023-04-09T10:06:05;9.60;77.00
39777;DHT22;25453;48.162;14.510;2023-04-09T10:08:33;9.60;76.90
39777;DHT22;25453;48.162;14.510;2023-04-09T10:11:01;9.60;76.80
39777;DHT22;25453;48.162;14.510;2023-04-09T10:15:59;9.70;76.60
39777;DHT22;25453;48.162;14.510;2023-04-09T10:18:30;9.70;76.60
39777;DHT22;25453;48.162;14.510;2023-04-09T10:23:35;9.70;76.30
39777;DHT22;25453;48.162;14.510;2023-04-09T10:26:03;9.70;76.40
39777;DHT22;25453;48.162;14.510;2023-04-09T10:28:31;9.70;76.30
39777;DHT22;25453;48.162;14.510;2023-04-09T10:30:58;9.70;76.20
39777;DHT22;25453;48.162;14.510;2023-04-09T10:33:25;9.80;76.20
39777;DHT22;25453;48.162;14.510;2023-04-09T10:35:54;9.80;76.20
39777;DHT22;25453;48.162;14.510;2023-04-09T10:38:34;9.80;76.20
39777;DHT22;25453;48.162;14.510;2023-04-09T10:41:07;9.80;76.10
39777;DHT22;25453;48.162;14.510;2023-04-09T10:43:35;9.90;76.00
39777;DHT22;25453;48.162;14.510;2023-04-09T10:46:06;9.90;75.90
39777;DHT22;25453;48.162;14.510;2023-04-09T10:48:34;9.90;75.70
39777;DHT22;25453;48.162;14.510;2023-04-09T10:51:01;9.90;75.50
39777;DHT22;25453;48.162;14.510;2023-04-09T10:53:31;9.90;75.50
39777;DHT22;25453;48.162;14.510;2023-04-09T10:55:58;9.90;75.40
39777;DHT22;25453;48.162;14.510;2023-04-09T10:58:25;9.90;75.40
39777;DHT22;25453;48.162;14.510;2023-04-09T11:00:52;10.00;75.60
39777;DHT22;25453;48.162;14.510;2023-04-09T11:03:20;10.10;75.90
39777;DHT22;25453;48.162;14.510;2023-04-09T11:05:54;10.20;76.10
39777;DHT22;25453;48.162;14.510;2023-04-09T11:08:22;10.40;75.80
39777;DHT22;25453;48.162;14.510;2023-04-09T11:10:49;10.60;75.40
39777;DHT22;25453;48.162;14.510;2023-04-09T11:13:18;10.70;75.00
39777;DHT22;25453;48.162;14.510;2023-04-09T11:15:46;10.80;74.40
39777;DHT22;25453;48.162;14.510;2023-04-09T11:18:20;10.90;73.80
39777;DHT22;25453;48.162;14.510;2023-04-09T11:20:48;10.90;73.60
39777;DHT22;25453;48.162;14.510;2023-04-09T11:23:16;10.80;73.40
39777;DHT22;25453;48.162;14.510;2023-04-09T11:25:46;10.90;73.60
39777;DHT22;25453;48.162;14.510;2023-04-09T11:28:14;11.10;73.60
39777;DHT22;25453;48.162;14.510;2023-04-09T11:30:40;11.30;73.10
39777;DHT22;25453;48.162;14.510;2023-04-09T11:33:09;11.50;73.20
39777;DHT22;25453;48.162;14.510;2023-04-09T11:35:36;11.80;72.70
39777;DHT22;25453;48.162;14.510;2023-04-09T11:38:06;12.20;72.70
39777;DHT22;25453;48.162;14.510;2023-04-09T11:40:34;12.40;72.00
39777;DHT22;25453;48.162;14.510;2023-04-09T11:43:01;12.70;71.20
39777;DHT22;25453;48.162;14.510;2023-04-09T11:45:29;12.90;70.50
39777;DHT22;25453;48.162;14.510;2023-04-09T11:47:57;13.00;69.70
39777;DHT22;25453;48.162;14.510;2023-04-09T11:50:28;13.00;68.80
39777;DHT22;25453;48.162;14.510;2023-04-09T11:52:55;12.90;67.60
39777;DHT22;25453;48.162;14.510;2023-04-09T11:55:26;12.80;67.00
39777;DHT22;25453;48.162;14.510;2023-04-09T11:57:55;12.60;66.70
39777;DHT22;25453;48.162;14.510;2023-04-09T12:00:23;12.30;66.70
39777;DHT22;25453;48.162;14.510;2023-04-09T12:02:57;12.10;66.70
39777;DHT22;25453;48.162;14.510;2023-04-09T12:05:25;12.00;66.80
39777;DHT22;25453;48.162;14.510;2023-04-09T12:08:11;11.80;67.00
39777;DHT22;25453;48.162;14.510;2023-04-09T12:10:38;11.70;67.00
39777;DHT22;25453;48.162;14.510;2023-04-09T12:13:06;11.60;67.10
39777;DHT22;25453;48.162;14.510;2023-04-09T12:15:37;11.50;67.10
39777;DHT22;25453;48.162;14.510;2023-04-09T12:18:08;11.40;67.20
39777;DHT22;25453;48.162;14.510;2023-04-09T12:20:36;11.30;67.20
39777;DHT22;25453;48.162;14.510;2023-04-09T12:23:05;11.30;67.20
39777;DHT22;25453;48.162;14.510;2023-04-09T12:25:34;11.20;67.30
39777;DHT22;25453;48.162;14.510;2023-04-09T12:28:03;11.20;67.40
39777;DHT22;25453;48.162;14.510;2023-04-09T12:30:30;11.10;67.50
39777;DHT22;25453;48.162;14.510;2023-04-09T12:32:57;11.10;67.40
39777;DHT22;25453;48.162;14.510;2023-04-09T12:35:24;11.00;67.30
39777;DHT22;25453;48.162;14.510;2023-04-09T12:37:51;11.00;67.30
39777;DHT22;25453;48.162;14.510;2023-04-09T12:40:19;10.90;67.40
39777;DHT22;25453;48.162;14.510;2023-04-09T12:42:46;10.90;67.50
39777;DHT22;25453;48.162;14.510;2023-04-09T12:45:13;10.90;67.60
39777;DHT22;25453;48.162;14.510;2023-04-09T12:47:41;10.90;67.70
39777;DHT22;25453;48.162;14.510;2023-04-09T12:50:09;10.90;67.70
39777;DHT22;25453;48.162;14.510;2023-04-09T12:52:36;10.80;67.50
39777;DHT22;25453;48.162;14.510;2023-04-09T12:55:04;10.80;67.60
39777;DHT22;25453;48.162;14.510;2023-04-09T12:57:31;10.80;67.80
39777;DHT22;25453;48.162;14.510;2023-04-09T12:59:58;10.80;67.80
39777;DHT22;25453;48.162;14.510;2023-04-09T13:02:25;10.80;67.90
39777;DHT22;25453;48.162;14.510;2023-04-09T13:04:52;10.80;67.90
39777;DHT22;25453;48.162;14.510;2023-04-09T13:07:19;10.70;67.80
39777;DHT22;25453;48.162;14.510;2023-04-09T13:09:46;10.70;67.90
39777;DHT22;25453;48.162;14.510;2023-04-09T13:12:16;10.70;68.00
39777;DHT22;25453;48.162;14.510;2023-04-09T13:14:44;10.60;68.10
39777;DHT22;25453;48.162;14.510;2023-04-09T13:17:12;10.60;68.30
39777;DHT22;25453;48.162;14.510;2023-04-09T13:19:39;10.50;68.50
39777;DHT22;25453;48.162;14.510;2023-04-09T13:22:08;10.40;68.90
39777;DHT22;25453;48.162;14.510;2023-04-09T13:24:36;10.30;69.20
39777;DHT22;25453;48.162;14.510;2023-04-09T13:27:04;10.30;69.40
39777;DHT22;25453;48.162;14.510;2023-04-09T13:29:31;10.30;69.60
39777;DHT22;25453;48.162;14.510;2023-04-09T13:31:58;10.20;69.90
39777;DHT22;25453;48.162;14.510;2023-04-09T13:34:27;10.20;70.00
39777;DHT22;25453;48.162;14.510;2023-04-09T13:36:54;10.20;70.20
39777;DHT22;25453;48.162;14.510;2023-04-09T13:39:22;10.20;70.50
39777;DHT22;25453;48.162;14.510;2023-04-09T13:41:49;10.20;70.70
39777;DHT22;25453;48.162;14.510;2023-04-09T13:44:16;10.20;70.90
39777;DHT22;25453;48.162;14.510;2023-04-09T13:46:43;10.20;70.90
39777;DHT22;25453;48.162;14.510;2023-04-09T13:49:10;10.20;71.00
39777;DHT22;25453;48.162;14.510;2023-04-09T13:51:37;10.20;71.00
39777;DHT22;25453;48.162;14.510;2023-04-09T13:54:04;10.20;71.10
39777;DHT22;25453;48.162;14.510;2023-04-09T13:56:33;10.20;71.30
39777;DHT22;25453;48.162;14.510;2023-04-09T13:59:00;10.20;71.50
39777;DHT22;25453;48.162;14.510;2023-04-09T14:01:28;10.20;71.50
39777;DHT22;25453;48.162;14.510;2023-04-09T14:03:55;10.20;71.50
39777;DHT22;25453;48.162;14.510;2023-04-09T14:06:23;10.20;71.70
39777;DHT22;25453;48.162;14.510;2023-04-09T14:08:50;10.20;71.80
39777;DHT22;25453;48.162;14.510;2023-04-09T14:11:17;10.30;71.90
39777;DHT22;25453;48.162;14.510;2023-04-09T14:13:44;10.30;71.90
39777;DHT22;25453;48.162;14.510;2023-04-09T14:16:11;10.30;71.80
39777;DHT22;25453;48.162;14.510;2023-04-09T14:18:38;10.30;72.00
39777;DHT22;25453;48.162;14.510;2023-04-09T14:21:06;10.40;72.40
39777;DHT22;25453;48.162;14.510;2023-04-09T14:23:35;10.60;72.40
39777;DHT22;25453;48.162;14.510;2023-04-09T14:26:04;10.70;72.10
39777;DHT22;25453;48.162;14.510;2023-04-09T14:28:31;10.70;71.80
39777;DHT22;25453;48.162;14.510;2023-04-09T14:30:58;10.80;71.60
39777;DHT22;25453;48.162;14.510;2023-04-09T14:33:26;10.80;71.70
39777;DHT22;25453;48.162;14.510;2023-04-09T14:35:53;10.90;71.60
39777;DHT22;25453;48.162;14.510;2023-04-09T14:38:21;11.00;71.70
39777;DHT22;25453;48.162;14.510;2023-04-09T14:40:49;11.00;71.60
39777;DHT22;25453;48.162;14.510;2023-04-09T14:43:17;11.20;71.80
39777;DHT22;25453;48.162;14.510;2023-04-09T14:45:43;11.30;71.40
39777;DHT22;25453;48.162;14.510;2023-04-09T14:48:10;11.30;71.00
39777;DHT22;25453;48.162;14.510;2023-04-09T14:50:37;11.20;70.40
39777;DHT22;25453;48.162;14.510;2023-04-09T14:53:04;11.10;70.30
39777;DHT22;25453;48.162;14.510;2023-04-09T14:55:31;11.10;70.40
39777;DHT22;25453;48.162;14.510;2023-04-09T14:57:58;11.10;70.40
39777;DHT22;25453;48.162;14.510;2023-04-09T15:00:27;11.10;70.50
39777;DHT22;25453;48.162;14.510;2023-04-09T15:02:54;11.10;70.60
39777;DHT22;25453;48.162;14.510;2023-04-09T15:05:22;11.00;70.40
39777;DHT22;25453;48.162;14.510;2023-04-09T15:07:49;11.00;70.40
39777;DHT22;25453;48.162;14.510;2023-04-09T15:10:16;11.00;70.50
39777;DHT22;25453;48.162;14.510;2023-04-09T15:12:43;10.90;70.60
39777;DHT22;25453;48.162;14.510;2023-04-09T15:15:10;10.90;70.70
39777;DHT22;25453;48.162;14.510;2023-04-09T15:17:39;10.90;71.00
39777;DHT22;25453;48.162;14.510;2023-04-09T15:20:06;10.90;71.10
39777;DHT22;25453;48.162;14.510;2023-04-09T15:22:33;11.00;71.00
39777;DHT22;25453;48.162;14.510;2023-04-09T15:25:00;11.00;71.10
39777;DHT22;25453;48.162;14.510;2023-04-09T15:27:27;11.00;70.80
39777;DHT22;25453;48.162;14.510;2023-04-09T15:29:54;10.90;70.40
39777;DHT22;25453;48.162;14.510;2023-04-09T15:32:21;10.80;70.30
39777;DHT22;25453;48.162;14.510;2023-04-09T15:34:48;10.70;70.50
39777;DHT22;25453;48.162;14.510;2023-04-09T15:37:15;10.60;70.80
39777;DHT22;25453;48.162;14.510;2023-04-09T15:39:42;10.50;70.90
39777;DHT22;25453;48.162;14.510;2023-04-09T15:42:09;10.50;71.00
39777;DHT22;25453;48.162;14.510;2023-04-09T15:44:39;10.40;71.30
39777;DHT22;25453;48.162;14.510;2023-04-09T15:47:07;10.40;71.50
39777;DHT22;25453;48.162;14.510;2023-04-09T15:49:34;10.30;71.60
39777;DHT22;25453;48.162;14.510;2023-04-09T15:52:02;10.20;71.50